sensor_id;sensor_type;location;lat;lon;timestamp;P1;durP1;ratioP1;P2;durP2;ratioP2
18857;SDS011;9558;50.178;8.370;2023-05-23T00:01:14;41.92;;;17.70;;
18857;SDS011;9558;50.178;8.370;2023-05-23T00:04:01;36.03;;;16.48;;
18857;SDS011;9558;50.178;8.370;2023-05-23T00:06:48;38.95;;;18.00;;
18857;SDS011;9558;50.178;8.370;2023-05-23T00:09:35;37.72;;;17.42;;
18857;SDS011;9558;50.178;8.370;2023-05-23T00:12:23;36.72;;;15.63;;
18857;SDS011;9558;50.178;8.370;2023-05-23T00:15:10;33.53;;;15.93;;
18857;SDS011;9558;50.178;8.370;2023-05-23T00:17:57;33.08;;;16.00;;
18857;SDS011;9558;50.178;8.370;2023-05-23T00:20:44;29.02;;;15.88;;
18857;SDS011;9558;50.178;8.370;2023-05-23T00:23:31;37.10;;;17.02;;
18857;SDS011;9558;50.178;8.370;2023-05-23T00:26:18;32.60;;;15.63;;
18857;SDS011;9558;50.178;8.370;2023-05-23T00:29:07;34.45;;;17.05;;
18857;SDS011;9558;50.178;8.370;2023-05-23T00:31:59;34.45;;;16.17;;
18857;SDS011;9558;50.178;8.370;2023-05-23T00:34:46;34.60;;;16.40;;
18857;SDS011;9558;50.178;8.370;2023-05-23T00:37:33;29.75;;;15.40;;
18857;SDS011;9558;50.178;8.370;2023-05-23T00:40:20;30.30;;;16.13;;
18857;SDS011;9558;50.178;8.370;2023-05-23T00:43:07;32.20;;;16.45;;
18857;SDS011;9558;50.178;8.370;2023-05-23T00:45:55;27.88;;;15.82;;
18857;SDS011;9558;50.178;8.370;2023-05-23T00:48:42;29.42;;;15.45;;
18857;SDS011;9558;50.178;8.370;2023-05-23T00:51:28;28.83;;;15.82;;
18857;SDS011;9558;50.178;8.370;2023-05-23T00:54:16;32.60;;;17.15;;
18857;SDS011;9558;50.178;8.370;2023-05-23T00:57:05;33.40;;;15.77;;
18857;SDS011;9558;50.178;8.370;2023-05-23T00:59:52;35.70;;;16.92;;
18857;SDS011;9558;50.178;8.370;2023-05-23T01:02:42;30.75;;;15.88;;
18857;SDS011;9558;50.178;8.370;2023-05-23T01:05:30;28.58;;;14.68;;
18857;SDS011;9558;50.178;8.370;2023-05-23T01:08:17;32.53;;;16.50;;
18857;SDS011;9558;50.178;8.370;2023-05-23T01:11:05;30.92;;;15.95;;
18857;SDS011;9558;50.178;8.370;2023-05-23T01:14:04;33.03;;;16.65;;
18857;SDS011;9558;50.178;8.370;2023-05-23T01:16:56;35.30;;;17.17;;
18857;SDS011;9558;50.178;8.370;2023-05-23T01:19:53;31.35;;;15.15;;
18857;SDS011;9558;50.178;8.370;2023-05-23T01:22:53;30.27;;;15.02;;
18857;SDS011;9558;50.178;8.370;2023-05-23T01:26:12;30.48;;;15.52;;
18857;SDS011;9558;50.178;8.370;2023-05-23T01:29:07;35.53;;;14.90;;
18857;SDS011;9558;50.178;8.370;2023-05-23T01:31:57;30.55;;;15.52;;
18857;SDS011;9558;50.178;8.370;2023-05-23T01:34:46;34.17;;;16.70;;
18857;SDS011;9558;50.178;8.370;2023-05-23T01:37:34;27.80;;;14.35;;
18857;SDS011;9558;50.178;8.370;2023-05-23T01:40:21;28.90;;;15.40;;
18857;SDS011;9558;50.178;8.370;2023-05-23T01:43:08;27.63;;;14.13;;
18857;SDS011;9558;50.178;8.370;2023-05-23T01:45:57;26.15;;;13.80;;
18857;SDS011;9558;50.178;8.370;2023-05-23T01:48:45;26.27;;;13.48;;
18857;SDS011;9558;50.178;8.370;2023-05-23T01:51:32;26.15;;;12.23;;
18857;SDS011;9558;50.178;8.370;2023-05-23T01:54:20;26.08;;;13.75;;
18857;SDS011;9558;50.178;8.370;2023-05-23T01:57:07;22.63;;;11.50;;
18857;SDS011;9558;50.178;8.370;2023-05-23T01:59:55;21.92;;;11.27;;
18857;SDS011;9558;50.178;8.370;2023-05-23T02:02:43;22.15;;;12.13;;
18857;SDS011;9558;50.178;8.370;2023-05-23T02:05:30;25.10;;;13.00;;
18857;SDS011;9558;50.178;8.370;2023-05-23T02:08:17;24.63;;;11.77;;
18857;SDS011;9558;50.178;8.370;2023-05-23T02:11:03;22.15;;;12.65;;
18857;SDS011;9558;50.178;8.370;2023-05-23T02:13:53;22.05;;;11.55;;
18857;SDS011;9558;50.178;8.370;2023-05-23T02:16:39;24.08;;;11.70;;
18857;SDS011;9558;50.178;8.370;2023-05-23T02:19:28;18.30;;;10.57;;
18857;SDS011;9558;50.178;8.370;2023-05-23T02:22:15;24.48;;;12.18;;
18857;SDS011;9558;50.178;8.370;2023-05-23T02:25:01;22.83;;;12.15;;
18857;SDS011;9558;50.178;8.370;2023-05-23T02:27:48;24.58;;;10.70;;
18857;SDS011;9558;50.178;8.370;2023-05-23T02:30:35;21.08;;;10.23;;
18857;SDS011;9558;50.178;8.370;2023-05-23T02:33:22;22.15;;;11.02;;
18857;SDS011;9558;50.178;8.370;2023-05-23T02:36:10;19.65;;;10.20;;
18857;SDS011;9558;50.178;8.370;2023-05-23T02:38:57;19.73;;;10.60;;
18857;SDS011;9558;50.178;8.370;2023-05-23T02:41:44;19.83;;;10.75;;
18857;SDS011;9558;50.178;8.370;2023-05-23T02:44:30;21.95;;;11.27;;
18857;SDS011;9558;50.178;8.370;2023-05-23T02:47:17;21.30;;;10.73;;
18857;SDS011;9558;50.178;8.370;2023-05-23T02:50:05;23.30;;;10.35;;
18857;SDS011;9558;50.178;8.370;2023-05-23T02:52:53;23.20;;;9.90;;
18857;SDS011;9558;50.178;8.370;2023-05-23T02:55:40;23.30;;;9.43;;
18857;SDS011;9558;50.178;8.370;2023-05-23T02:58:27;22.40;;;10.60;;
18857;SDS011;9558;50.178;8.370;2023-05-23T03:01:14;19.42;;;10.10;;
18857;SDS011;9558;50.178;8.370;2023-05-23T03:04:02;28.92;;;11.68;;
18857;SDS011;9558;50.178;8.370;2023-05-23T03:06:49;18.80;;;10.40;;
18857;SDS011;9558;50.178;8.370;2023-05-23T03:09:40;22.48;;;10.52;;
18857;SDS011;9558;50.178;8.370;2023-05-23T03:12:26;21.52;;;10.35;;
18857;SDS011;9558;50.178;8.370;2023-05-23T03:15:13;23.20;;;11.15;;
18857;SDS011;9558;50.178;8.370;2023-05-23T03:18:00;21.50;;;10.95;;
18857;SDS011;9558;50.178;8.370;2023-05-23T03:20:47;22.08;;;11.32;;
18857;SDS011;9558;50.178;8.370;2023-05-23T03:23:33;27.42;;;12.38;;
18857;SDS011;9558;50.178;8.370;2023-05-23T03:26:22;25.83;;;11.20;;
18857;SDS011;9558;50.178;8.370;2023-05-23T03:29:09;22.27;;;11.05;;
18857;SDS011;9558;50.178;8.370;2023-05-23T03:31:58;24.20;;;12.43;;
18857;SDS011;9558;50.178;8.370;2023-05-23T03:34:45;25.33;;;11.88;;
18857;SDS011;9558;50.178;8.370;2023-05-23T03:37:32;21.23;;;10.65;;
18857;SDS011;9558;50.178;8.370;2023-05-23T03:40:18;24.65;;;11.05;;
18857;SDS011;9558;50.178;8.370;2023-05-23T03:43:07;20.52;;;9.90;;
18857;SDS011;9558;50.178;8.370;2023-05-23T03:45:54;24.17;;;11.68;;
18857;SDS011;9558;50.178;8.370;2023-05-23T03:48:41;22.08;;;11.50;;
18857;SDS011;9558;50.178;8.370;2023-05-23T03:51:28;23.88;;;11.35;;
18857;SDS011;9558;50.178;8.370;2023-05-23T03:54:15;26.67;;;12.38;;
18857;SDS011;9558;50.178;8.370;2023-05-23T03:57:03;20.92;;;11.88;;
18857;SDS011;9558;50.178;8.370;2023-05-23T03:59:51;23.13;;;11.82;;
18857;SDS011;9558;50.178;8.370;2023-05-23T04:02:38;25.02;;;11.30;;
18857;SDS011;9558;50.178;8.370;2023-05-23T04:05:25;19.92;;;10.18;;
18857;SDS011;9558;50.178;8.370;2023-05-23T04:08:11;22.50;;;9.70;;
18857;SDS011;9558;50.178;8.370;2023-05-23T04:10:58;18.02;;;8.50;;
18857;SDS011;9558;50.178;8.370;2023-05-23T04:13:45;17.55;;;9.80;;
18857;SDS011;9558;50.178;8.370;2023-05-23T04:16:34;18.80;;;8.18;;
18857;SDS011;9558;50.178;8.370;2023-05-23T04:19:25;14.27;;;8.02;;
18857;SDS011;9558;50.178;8.370;2023-05-23T04:22:12;14.60;;;7.60;;
18857;SDS011;9558;50.178;8.370;2023-05-23T04:24:59;17.50;;;9.50;;
18857;SDS011;9558;50.178;8.370;2023-05-23T04:27:45;18.42;;;8.82;;
18857;SDS011;9558;50.178;8.370;2023-05-23T04:30:33;16.27;;;9.43;;
18857;SDS011;9558;50.178;8.370;2023-05-23T04:33:21;15.70;;;8.50;;
18857;SDS011;9558;50.178;8.370;2023-05-23T04:36:08;16.35;;;8.30;;
18857;SDS011;9558;50.178;8.370;2023-05-23T04:38:54;15.35;;;8.07;;
18857;SDS011;9558;50.178;8.370;2023-05-23T04:41:41;16.63;;;9.32;;
18857;SDS011;9558;50.178;8.370;2023-05-23T04:44:29;17.80;;;9.13;;
18857;SDS011;9558;50.178;8.370;2023-05-23T04:47:16;15.93;;;8.65;;
18857;SDS011;9558;50.178;8.370;2023-05-23T04:50:05;17.75;;;8.27;;
18857;SDS011;9558;50.178;8.370;2023-05-23T04:52:53;17.42;;;9.50;;
18857;SDS011;9558;50.178;8.370;2023-05-23T04:55:40;18.55;;;8.98;;
18857;SDS011;9558;50.178;8.370;2023-05-23T04:58:27;15.60;;;8.90;;
18857;SDS011;9558;50.178;8.370;2023-05-23T05:01:14;16.73;;;8.40;;
18857;SDS011;9558;50.178;8.370;2023-05-23T05:04:01;17.52;;;8.68;;
18857;SDS011;9558;50.178;8.370;2023-05-23T05:06:49;18.52;;;8.80;;
18857;SDS011;9558;50.178;8.370;2023-05-23T05:09:36;20.15;;;8.63;;
18857;SDS011;9558;50.178;8.370;2023-05-23T05:12:23;18.52;;;9.95;;
18857;SDS011;9558;50.178;8.370;2023-05-23T05:15:10;18.25;;;9.52;;
18857;SDS011;9558;50.178;8.370;2023-05-23T05:17:58;20.52;;;10.40;;
18857;SDS011;9558;50.178;8.370;2023-05-23T05:20:44;18.60;;;8.68;;
18857;SDS011;9558;50.178;8.370;2023-05-23T05:23:33;19.75;;;9.60;;
18857;SDS011;9558;50.178;8.370;2023-05-23T05:26:21;18.55;;;9.05;;
18857;SDS011;9558;50.178;8.370;2023-05-23T05:29:07;18.27;;;9.38;;
18857;SDS011;9558;50.178;8.370;2023-05-23T05:31:55;15.88;;;7.15;;
18857;SDS011;9558;50.178;8.370;2023-05-23T05:34:42;13.13;;;6.72;;
18857;SDS011;9558;50.178;8.370;2023-05-23T05:37:29;12.60;;;7.05;;
18857;SDS011;9558;50.178;8.370;2023-05-23T05:40:17;13.57;;;6.70;;
18857;SDS011;9558;50.178;8.370;2023-05-23T05:43:04;9.93;;;6.45;;
18857;SDS011;9558;50.178;8.370;2023-05-23T05:45:51;11.93;;;6.93;;
18857;SDS011;9558;50.178;8.370;2023-05-23T05:48:37;14.80;;;6.40;;
18857;SDS011;9558;50.178;8.370;2023-05-23T05:51:24;10.63;;;6.70;;
18857;SDS011;9558;50.178;8.370;2023-05-23T05:54:11;10.50;;;6.35;;
18857;SDS011;9558;50.178;8.370;2023-05-23T05:56:59;11.35;;;6.13;;
18857;SDS011;9558;50.178;8.370;2023-05-23T05:59:46;10.75;;;6.35;;
18857;SDS011;9558;50.178;8.370;2023-05-23T06:02:33;10.43;;;6.10;;
18857;SDS011;9558;50.178;8.370;2023-05-23T06:05:20;12.88;;;6.25;;
18857;SDS011;9558;50.178;8.370;2023-05-23T06:08:07;13.35;;;6.85;;
18857;SDS011;9558;50.178;8.370;2023-05-23T06:10:54;11.70;;;6.68;;
18857;SDS011;9558;50.178;8.370;2023-05-23T06:13:43;12.55;;;6.32;;
18857;SDS011;9558;50.178;8.370;2023-05-23T06:16:29;9.73;;;5.97;;
18857;SDS011;9558;50.178;8.370;2023-05-23T06:19:16;13.85;;;7.13;;
18857;SDS011;9558;50.178;8.370;2023-05-23T06:22:03;16.10;;;6.95;;
18857;SDS011;9558;50.178;8.370;2023-05-23T06:24:50;11.23;;;6.80;;
18857;SDS011;9558;50.178;8.370;2023-05-23T06:27:37;12.02;;;7.07;;
18857;SDS011;9558;50.178;8.370;2023-05-23T06:30:25;10.73;;;6.95;;
18857;SDS011;9558;50.178;8.370;2023-05-23T06:33:14;11.38;;;6.47;;
18857;SDS011;9558;50.178;8.370;2023-05-23T06:36:01;11.68;;;7.38;;
18857;SDS011;9558;50.178;8.370;2023-05-23T06:38:48;10.25;;;6.28;;
18857;SDS011;9558;50.178;8.370;2023-05-23T06:41:35;10.98;;;6.72;;
18857;SDS011;9558;50.178;8.370;2023-05-23T06:44:22;9.40;;;5.95;;
18857;SDS011;9558;50.178;8.370;2023-05-23T06:47:10;8.75;;;5.82;;
18857;SDS011;9558;50.178;8.370;2023-05-23T06:49:56;9.32;;;5.80;;
18857;SDS011;9558;50.178;8.370;2023-05-23T06:52:43;9.07;;;5.90;;
18857;SDS011;9558;50.178;8.370;2023-05-23T06:55:31;9.13;;;5.70;;
18857;SDS011;9558;50.178;8.370;2023-05-23T06:58:18;9.13;;;4.65;;
18857;SDS011;9558;50.178;8.370;2023-05-23T07:01:04;7.50;;;4.40;;
18857;SDS011;9558;50.178;8.370;2023-05-23T07:03:53;8.30;;;4.97;;
18857;SDS011;9558;50.178;8.370;2023-05-23T07:06:39;6.93;;;4.80;;
18857;SDS011;9558;50.178;8.370;2023-05-23T07:09:26;6.57;;;3.90;;
18857;SDS011;9558;50.178;8.370;2023-05-23T07:12:13;8.00;;;4.15;;
18857;SDS011;9558;50.178;8.370;2023-05-23T07:15:00;10.07;;;4.32;;
18857;SDS011;9558;50.178;8.370;2023-05-23T07:17:47;6.88;;;4.60;;
18857;SDS011;9558;50.178;8.370;2023-05-23T07:20:35;5.13;;;3.35;;
18857;SDS011;9558;50.178;8.370;2023-05-23T07:23:22;5.20;;;3.60;;
18857;SDS011;9558;50.178;8.370;2023-05-23T07:26:09;7.47;;;4.30;;
18857;SDS011;9558;50.178;8.370;2023-05-23T07:28:57;5.72;;;3.83;;
18857;SDS011;9558;50.178;8.370;2023-05-23T07:31:44;4.82;;;3.63;;
18857;SDS011;9558;50.178;8.370;2023-05-23T07:34:33;4.70;;;3.60;;
18857;SDS011;9558;50.178;8.370;2023-05-23T07:37:21;4.32;;;3.70;;
18857;SDS011;9558;50.178;8.370;2023-05-23T07:40:08;5.30;;;3.25;;
18857;SDS011;9558;50.178;8.370;2023-05-23T07:42:56;6.60;;;3.53;;
18857;SDS011;9558;50.178;8.370;2023-05-23T07:45:44;7.65;;;4.22;;
18857;SDS011;9558;50.178;8.370;2023-05-23T07:48:31;6.18;;;3.70;;
18857;SDS011;9558;50.178;8.370;2023-05-23T07:51:18;6.18;;;3.60;;
18857;SDS011;9558;50.178;8.370;2023-05-23T07:54:07;5.93;;;3.83;;
18857;SDS011;9558;50.178;8.370;2023-05-23T07:56:54;8.02;;;3.80;;
18857;SDS011;9558;50.178;8.370;2023-05-23T07:59:41;6.03;;;3.90;;
18857;SDS011;9558;50.178;8.370;2023-05-23T08:02:28;5.18;;;3.28;;
18857;SDS011;9558;50.178;8.370;2023-05-23T08:05:15;6.07;;;3.60;;
18857;SDS011;9558;50.178;8.370;2023-05-23T08:08:03;4.88;;;3.58;;
18857;SDS011;9558;50.178;8.370;2023-05-23T08:10:51;4.78;;;3.55;;
18857;SDS011;9558;50.178;8.370;2023-05-23T08:13:38;9.80;;;3.72;;
18857;SDS011;9558;50.178;8.370;2023-05-23T08:16:25;3.80;;;3.22;;
18857;SDS011;9558;50.178;8.370;2023-05-23T08:19:12;4.68;;;3.70;;
18857;SDS011;9558;50.178;8.370;2023-05-23T08:21:59;6.63;;;3.45;;
18857;SDS011;9558;50.178;8.370;2023-05-23T08:24:46;4.70;;;3.30;;
18857;SDS011;9558;50.178;8.370;2023-05-23T08:27:34;4.38;;;3.30;;
18857;SDS011;9558;50.178;8.370;2023-05-23T08:30:21;5.35;;;3.30;;
18857;SDS011;9558;50.178;8.370;2023-05-23T08:33:09;7.43;;;2.97;;
18857;SDS011;9558;50.178;8.370;2023-05-23T08:35:57;4.15;;;3.13;;
18857;SDS011;9558;50.178;8.370;2023-05-23T08:38:43;4.53;;;3.30;;
18857;SDS011;9558;50.178;8.370;2023-05-23T08:41:30;5.22;;;3.35;;
18857;SDS011;9558;50.178;8.370;2023-05-23T08:44:19;6.40;;;3.33;;
18857;SDS011;9558;50.178;8.370;2023-05-23T08:47:06;6.13;;;3.20;;
18857;SDS011;9558;50.178;8.370;2023-05-23T08:49:54;4.80;;;3.22;;
18857;SDS011;9558;50.178;8.370;2023-05-23T08:52:42;4.63;;;2.75;;
18857;SDS011;9558;50.178;8.370;2023-05-23T08:55:33;4.20;;;2.72;;
18857;SDS011;9558;50.178;8.370;2023-05-23T08:58:20;4.60;;;3.03;;
18857;SDS011;9558;50.178;8.370;2023-05-23T09:01:10;5.90;;;3.20;;
18857;SDS011;9558;50.178;8.370;2023-05-23T09:03:58;6.25;;;4.05;;
18857;SDS011;9558;50.178;8.370;2023-05-23T09:06:49;5.00;;;3.50;;
18857;SDS011;9558;50.178;8.370;2023-05-23T09:09:36;3.42;;;2.83;;
18857;SDS011;9558;50.178;8.370;2023-05-23T09:12:23;4.03;;;3.20;;
18857;SDS011;9558;50.178;8.370;2023-05-23T09:15:11;4.88;;;3.40;;
18857;SDS011;9558;50.178;8.370;2023-05-23T09:17:59;7.55;;;3.30;;
18857;SDS011;9558;50.178;8.370;2023-05-23T09:20:47;4.00;;;2.97;;
18857;SDS011;9558;50.178;8.370;2023-05-23T09:23:34;4.63;;;2.95;;
18857;SDS011;9558;50.178;8.370;2023-05-23T09:26:22;6.70;;;3.10;;
18857;SDS011;9558;50.178;8.370;2023-05-23T09:29:09;3.08;;;2.35;;
18857;SDS011;9558;50.178;8.370;2023-05-23T09:31:58;4.57;;;2.97;;
18857;SDS011;9558;50.178;8.370;2023-05-23T09:34:56;4.60;;;2.95;;
18857;SDS011;9558;50.178;8.370;2023-05-23T09:37:44;3.25;;;2.50;;
18857;SDS011;9558;50.178;8.370;2023-05-23T09:40:32;5.10;;;3.13;;
18857;SDS011;9558;50.178;8.370;2023-05-23T09:43:20;5.57;;;3.28;;
18857;SDS011;9558;50.178;8.370;2023-05-23T09:46:08;2.83;;;2.53;;
18857;SDS011;9558;50.178;8.370;2023-05-23T09:48:55;6.40;;;2.97;;
18857;SDS011;9558;50.178;8.370;2023-05-23T09:51:56;4.10;;;3.00;;
18857;SDS011;9558;50.178;8.370;2023-05-23T09:54:44;4.95;;;3.30;;
18857;SDS011;9558;50.178;8.370;2023-05-23T09:57:32;4.43;;;2.67;;
18857;SDS011;9558;50.178;8.370;2023-05-23T10:00:22;4.50;;;3.42;;
18857;SDS011;9558;50.178;8.370;2023-05-23T10:03:10;4.13;;;3.55;;
18857;SDS011;9558;50.178;8.370;2023-05-23T10:05:58;6.28;;;3.45;;
18857;SDS011;9558;50.178;8.370;2023-05-23T10:08:53;7.28;;;4.00;;
18857;SDS011;9558;50.178;8.370;2023-05-23T10:17:56;7.03;;;3.97;;
18857;SDS011;9558;50.178;8.370;2023-05-23T10:20:48;8.48;;;4.53;;
18857;SDS011;9558;50.178;8.370;2023-05-23T10:23:40;7.78;;;3.90;;
18857;SDS011;9558;50.178;8.370;2023-05-23T10:26:30;7.70;;;4.47;;
18857;SDS011;9558;50.178;8.370;2023-05-23T10:29:17;8.07;;;4.22;;
18857;SDS011;9558;50.178;8.370;2023-05-23T10:32:04;7.00;;;4.55;;
18857;SDS011;9558;50.178;8.370;2023-05-23T10:34:54;8.35;;;5.20;;
18857;SDS011;9558;50.178;8.370;2023-05-23T10:37:46;7.18;;;4.15;;
18857;SDS011;9558;50.178;8.370;2023-05-23T10:40:36;6.47;;;4.15;;
18857;SDS011;9558;50.178;8.370;2023-05-23T10:43:36;7.35;;;4.57;;
18857;SDS011;9558;50.178;8.370;2023-05-23T10:49:39;7.03;;;3.78;;
18857;SDS011;9558;50.178;8.370;2023-05-23T10:52:28;5.70;;;4.25;;
18857;SDS011;9558;50.178;8.370;2023-05-23T10:55:25;5.05;;;3.30;;
18857;SDS011;9558;50.178;8.370;2023-05-23T10:58:17;4.43;;;3.13;;
18857;SDS011;9558;50.178;8.370;2023-05-23T11:01:08;4.78;;;3.00;;
18857;SDS011;9558;50.178;8.370;2023-05-23T11:04:03;3.55;;;2.25;;
18857;SDS011;9558;50.178;8.370;2023-05-23T11:06:51;5.28;;;2.72;;
18857;SDS011;9558;50.178;8.370;2023-05-23T11:09:46;2.83;;;2.40;;
18857;SDS011;9558;50.178;8.370;2023-05-23T11:12:49;3.35;;;2.13;;
18857;SDS011;9558;50.178;8.370;2023-05-23T11:15:42;6.80;;;2.30;;
18857;SDS011;9558;50.178;8.370;2023-05-23T11:18:31;3.47;;;2.25;;
18857;SDS011;9558;50.178;8.370;2023-05-23T11:21:21;5.35;;;2.42;;
18857;SDS011;9558;50.178;8.370;2023-05-23T11:24:08;3.47;;;2.30;;
18857;SDS011;9558;50.178;8.370;2023-05-23T11:26:57;3.45;;;2.03;;
18857;SDS011;9558;50.178;8.370;2023-05-23T11:29:55;6.95;;;2.42;;
18857;SDS011;9558;50.178;8.370;2023-05-23T11:32:48;2.63;;;2.00;;
18857;SDS011;9558;50.178;8.370;2023-05-23T11:35:37;3.55;;;2.05;;
18857;SDS011;9558;50.178;8.370;2023-05-23T11:38:25;3.42;;;2.20;;
18857;SDS011;9558;50.178;8.370;2023-05-23T11:41:12;7.25;;;2.38;;
18857;SDS011;9558;50.178;8.370;2023-05-23T11:43:59;2.50;;;2.00;;
18857;SDS011;9558;50.178;8.370;2023-05-23T11:46:57;3.90;;;2.55;;
18857;SDS011;9558;50.178;8.370;2023-05-23T11:49:45;3.17;;;2.05;;
18857;SDS011;9558;50.178;8.370;2023-05-23T11:52:33;3.65;;;2.65;;
18857;SDS011;9558;50.178;8.370;2023-05-23T11:55:21;4.22;;;2.30;;
18857;SDS011;9558;50.178;8.370;2023-05-23T11:58:09;3.10;;;2.30;;
18857;SDS011;9558;50.178;8.370;2023-05-23T12:00:59;3.13;;;2.47;;
18857;SDS011;9558;50.178;8.370;2023-05-23T12:03:47;5.20;;;2.55;;
18857;SDS011;9558;50.178;8.370;2023-05-23T12:06:35;4.03;;;2.20;;
18857;SDS011;9558;50.178;8.370;2023-05-23T12:09:26;3.30;;;2.35;;
18857;SDS011;9558;50.178;8.370;2023-05-23T12:12:13;2.90;;;1.88;;
18857;SDS011;9558;50.178;8.370;2023-05-23T12:15:00;3.53;;;2.10;;
18857;SDS011;9558;50.178;8.370;2023-05-23T12:17:47;3.90;;;2.55;;
18857;SDS011;9558;50.178;8.370;2023-05-23T12:20:35;4.13;;;2.67;;
18857;SDS011;9558;50.178;8.370;2023-05-23T12:23:22;10.48;;;2.35;;
18857;SDS011;9558;50.178;8.370;2023-05-23T12:26:10;3.13;;;2.47;;
18857;SDS011;9558;50.178;8.370;2023-05-23T12:28:57;2.45;;;2.05;;
18857;SDS011;9558;50.178;8.370;2023-05-23T12:31:49;2.70;;;2.30;;
18857;SDS011;9558;50.178;8.370;2023-05-23T12:34:39;2.90;;;2.20;;
18857;SDS011;9558;50.178;8.370;2023-05-23T12:37:27;2.30;;;2.10;;
18857;SDS011;9558;50.178;8.370;2023-05-23T12:40:15;2.78;;;2.10;;
18857;SDS011;9558;50.178;8.370;2023-05-23T12:43:07;3.45;;;2.20;;
18857;SDS011;9558;50.178;8.370;2023-05-23T12:45:55;4.93;;;2.35;;
18857;SDS011;9558;50.178;8.370;2023-05-23T12:48:42;3.28;;;2.13;;
18857;SDS011;9558;50.178;8.370;2023-05-23T12:51:29;3.65;;;2.00;;
18857;SDS011;9558;50.178;8.370;2023-05-23T12:54:16;4.10;;;2.35;;
18857;SDS011;9558;50.178;8.370;2023-05-23T12:57:03;4.72;;;2.47;;
18857;SDS011;9558;50.178;8.370;2023-05-23T12:59:51;3.97;;;2.70;;
18857;SDS011;9558;50.178;8.370;2023-05-23T13:02:38;7.13;;;2.40;;
18857;SDS011;9558;50.178;8.370;2023-05-23T13:05:25;4.60;;;2.55;;
18857;SDS011;9558;50.178;8.370;2023-05-23T13:08:12;5.05;;;2.97;;
18857;SDS011;9558;50.178;8.370;2023-05-23T13:10:59;5.97;;;2.60;;
18857;SDS011;9558;50.178;8.370;2023-05-23T13:13:45;7.03;;;3.15;;
18857;SDS011;9558;50.178;8.370;2023-05-23T13:16:33;7.45;;;3.40;;
18857;SDS011;9558;50.178;8.370;2023-05-23T13:19:23;4.85;;;3.00;;
18857;SDS011;9558;50.178;8.370;2023-05-23T13:22:10;6.45;;;3.67;;
18857;SDS011;9558;50.178;8.370;2023-05-23T13:24:56;4.85;;;3.05;;
18857;SDS011;9558;50.178;8.370;2023-05-23T13:27:43;7.78;;;2.90;;
18857;SDS011;9558;50.178;8.370;2023-05-23T13:30:30;5.78;;;3.33;;
18857;SDS011;9558;50.178;8.370;2023-05-23T13:33:19;6.50;;;3.83;;
18857;SDS011;9558;50.178;8.370;2023-05-23T13:36:07;5.40;;;3.40;;
18857;SDS011;9558;50.178;8.370;2023-05-23T13:38:54;5.28;;;3.15;;
18857;SDS011;9558;50.178;8.370;2023-05-23T13:41:40;4.95;;;3.25;;
18857;SDS011;9558;50.178;8.370;2023-05-23T13:44:27;4.10;;;3.05;;
18857;SDS011;9558;50.178;8.370;2023-05-23T13:47:14;7.32;;;3.60;;
18857;SDS011;9558;50.178;8.370;2023-05-23T13:50:02;4.55;;;3.35;;
18857;SDS011;9558;50.178;8.370;2023-05-23T13:52:50;5.97;;;3.45;;
18857;SDS011;9558;50.178;8.370;2023-05-23T13:55:37;6.90;;;3.92;;
18857;SDS011;9558;50.178;8.370;2023-05-23T13:58:23;5.15;;;3.95;;
18857;SDS011;9558;50.178;8.370;2023-05-23T14:01:10;8.90;;;4.00;;
18857;SDS011;9558;50.178;8.370;2023-05-23T14:03:57;6.10;;;3.85;;
18857;SDS011;9558;50.178;8.370;2023-05-23T14:06:45;8.77;;;4.00;;
18857;SDS011;9558;50.178;8.370;2023-05-23T14:09:32;7.95;;;4.10;;
18857;SDS011;9558;50.178;8.370;2023-05-23T14:12:19;11.23;;;4.88;;
18857;SDS011;9558;50.178;8.370;2023-05-23T14:15:06;10.15;;;4.50;;
18857;SDS011;9558;50.178;8.370;2023-05-23T14:17:54;7.75;;;4.28;;
18857;SDS011;9558;50.178;8.370;2023-05-23T14:20:41;9.95;;;3.97;;
18857;SDS011;9558;50.178;8.370;2023-05-23T14:23:29;6.72;;;4.05;;
18857;SDS011;9558;50.178;8.370;2023-05-23T14:26:16;9.07;;;4.90;;
18857;SDS011;9558;50.178;8.370;2023-05-23T14:29:03;8.77;;;4.68;;
18857;SDS011;9558;50.178;8.370;2023-05-23T14:31:50;9.40;;;4.00;;
18857;SDS011;9558;50.178;8.370;2023-05-23T14:34:36;9.48;;;4.90;;
18857;SDS011;9558;50.178;8.370;2023-05-23T14:37:23;8.18;;;4.85;;
18857;SDS011;9558;50.178;8.370;2023-05-23T14:40:11;8.30;;;4.78;;
18857;SDS011;9558;50.178;8.370;2023-05-23T14:43:00;6.70;;;4.50;;
18857;SDS011;9558;50.178;8.370;2023-05-23T14:45:47;7.45;;;4.43;;
18857;SDS011;9558;50.178;8.370;2023-05-23T14:48:34;9.65;;;5.28;;
18857;SDS011;9558;50.178;8.370;2023-05-23T14:51:20;10.80;;;5.60;;
18857;SDS011;9558;50.178;8.370;2023-05-23T14:54:07;7.40;;;4.38;;
18857;SDS011;9558;50.178;8.370;2023-05-23T14:56:56;6.32;;;3.88;;
18857;SDS011;9558;50.178;8.370;2023-05-23T14:59:43;6.57;;;4.03;;
18857;SDS011;9558;50.178;8.370;2023-05-23T15:02:30;6.22;;;4.00;;
18857;SDS011;9558;50.178;8.370;2023-05-23T15:05:18;6.00;;;3.58;;
18857;SDS011;9558;50.178;8.370;2023-05-23T15:08:04;7.22;;;4.38;;
18857;SDS011;9558;50.178;8.370;2023-05-23T15:10:51;7.45;;;3.55;;
18857;SDS011;9558;50.178;8.370;2023-05-23T15:13:39;7.88;;;3.75;;
18857;SDS011;9558;50.178;8.370;2023-05-23T15:16:26;6.85;;;3.42;;
18857;SDS011;9558;50.178;8.370;2023-05-23T15:19:16;6.03;;;3.65;;
18857;SDS011;9558;50.178;8.370;2023-05-23T15:22:03;7.53;;;3.53;;
18857;SDS011;9558;50.178;8.370;2023-05-23T15:24:50;6.07;;;3.45;;
18857;SDS011;9558;50.178;8.370;2023-05-23T15:27:37;6.43;;;2.92;;
18857;SDS011;9558;50.178;8.370;2023-05-23T15:30:26;5.07;;;3.03;;
18857;SDS011;9558;50.178;8.370;2023-05-23T15:33:12;3.97;;;2.72;;
18857;SDS011;9558;50.178;8.370;2023-05-23T15:36:00;4.55;;;2.95;;
18857;SDS011;9558;50.178;8.370;2023-05-23T15:38:46;3.85;;;2.22;;
18857;SDS011;9558;50.178;8.370;2023-05-23T15:41:33;3.35;;;2.10;;
18857;SDS011;9558;50.178;8.370;2023-05-23T15:44:20;4.47;;;2.22;;
18857;SDS011;9558;50.178;8.370;2023-05-23T15:47:08;3.60;;;2.13;;
18857;SDS011;9558;50.178;8.370;2023-05-23T15:49:55;3.45;;;2.20;;
18857;SDS011;9558;50.178;8.370;2023-05-23T15:52:42;7.55;;;2.40;;
18857;SDS011;9558;50.178;8.370;2023-05-23T15:55:29;4.80;;;2.10;;
18857;SDS011;9558;50.178;8.370;2023-05-23T15:58:16;3.80;;;2.05;;
18857;SDS011;9558;50.178;8.370;2023-05-23T16:01:02;5.07;;;2.10;;
18857;SDS011;9558;50.178;8.370;2023-05-23T16:03:51;2.92;;;2.00;;
18857;SDS011;9558;50.178;8.370;2023-05-23T16:06:37;3.08;;;1.90;;
18857;SDS011;9558;50.178;8.370;2023-05-23T16:09:24;4.82;;;2.08;;
18857;SDS011;9558;50.178;8.370;2023-05-23T16:12:11;5.35;;;2.08;;
18857;SDS011;9558;50.178;8.370;2023-05-23T16:14:58;3.25;;;2.30;;
18857;SDS011;9558;50.178;8.370;2023-05-23T16:17:45;4.50;;;2.20;;
18857;SDS011;9558;50.178;8.370;2023-05-23T16:20:33;3.38;;;2.20;;
18857;SDS011;9558;50.178;8.370;2023-05-23T16:23:20;4.72;;;2.10;;
18857;SDS011;9558;50.178;8.370;2023-05-23T16:26:07;5.72;;;2.45;;
18857;SDS011;9558;50.178;8.370;2023-05-23T16:28:54;4.25;;;2.33;;
18857;SDS011;9558;50.178;8.370;2023-05-23T16:31:40;4.93;;;2.40;;
18857;SDS011;9558;50.178;8.370;2023-05-23T16:34:27;4.22;;;2.10;;
18857;SDS011;9558;50.178;8.370;2023-05-23T16:37:16;3.75;;;2.55;;
18857;SDS011;9558;50.178;8.370;2023-05-23T16:40:03;3.50;;;2.13;;
18857;SDS011;9558;50.178;8.370;2023-05-23T16:42:51;3.25;;;1.95;;
18857;SDS011;9558;50.178;8.370;2023-05-23T16:45:38;3.25;;;1.98;;
18857;SDS011;9558;50.178;8.370;2023-05-23T16:48:25;3.40;;;2.15;;
18857;SDS011;9558;50.178;8.370;2023-05-23T16:51:12;3.00;;;2.00;;
18857;SDS011;9558;50.178;8.370;2023-05-23T16:54:00;2.63;;;1.75;;
18857;SDS011;9558;50.178;8.370;2023-05-23T16:56:47;2.97;;;1.52;;
18857;SDS011;9558;50.178;8.370;2023-05-23T16:59:34;2.95;;;2.13;;
18857;SDS011;9558;50.178;8.370;2023-05-23T17:02:20;2.65;;;1.50;;
18857;SDS011;9558;50.178;8.370;2023-05-23T17:05:07;2.92;;;1.90;;
18857;SDS011;9558;50.178;8.370;2023-05-23T17:07:54;2.97;;;2.17;;